Stations météo

réclame
Mon MeteoGroup
Hallands Vaderö, Suède (2605): Température de l'air & dewpoint: 13.10.2018 11:00:00 - 19.10.2018 11:00:00 (CEST)Hallands Vaderö, Suède (2605): Vitesse du vent & gusts: 13.10.2018 11:00:00 - 19.10.2018 11:00:00 (CEST)Hallands Vaderö, Suède (2605): Direction du vent: 13.10.2018 11:00:00 - 19.10.2018 11:00:00 (CEST)Hallands Vaderö, Suède (2605): visibility: 13.10.2018 11:00:00 - 19.10.2018 11:00:00 (CEST)Hallands Vaderö, Suède (2605): Quantités de précipitations: 13.10.2018 11:00:00 - 19.10.2018 11:00:00 (CEST)
Date & Time tt [°C] td [°C] ff [km/h] ff [knt] fx [km/h] fx [knt] dd vv [km] rr [mm]
19.10.2018 11:00:00 9,6 7,7 12 7 19 10 SSE 28 0,0
19.10.2018 10:00:00 8,7 7,6 13 7 18 10 SSE 23 0,0
19.10.2018 09:00:00 7,5 6,8 11 6 18 10 SSE 17 0,0
19.10.2018 08:00:00 7,1 6,2 11 6 15 8 SSE 30 0,0
19.10.2018 07:00:00 7,9 6,8 9 5 14 7 SSE 34 0,0
19.10.2018 06:00:00 - - - - - - - - -
19.10.2018 05:00:00 7,9 7,0 9 5 13 7 SSE 29 0,0
19.10.2018 04:00:00 7,8 6,7 9 5 13 7 SSE 32 0,0
19.10.2018 03:00:00 7,1 5,7 9 5 13 7 SSE 32 0,0
19.10.2018 02:00:00 8,5 6,1 6 3 17 9 ESE 40 0,0
19.10.2018 01:00:00 9,9 5,7 8 5 21 11 N 44 0,0
19.10.2018 00:00:00 10,4 5,6 13 7 26 14 NNW 48 0,0
18.10.2018 23:00:00 10,7 5,5 19 10 30 16 NNW 48 0,0
18.10.2018 22:00:00 10,9 5,8 22 12 33 18 NNW 50 0,0
18.10.2018 21:00:00 11,0 5,7 23 13 37 20 NNW 44 0,0
18.10.2018 20:00:00 11,2 5,9 24 13 37 20 NNW 42 0,0
18.10.2018 19:00:00 11,4 6,5 28 15 37 20 NNW 33 0,0
18.10.2018 18:00:00 11,6 6,9 29 16 39 21 NNW 33 0,0
18.10.2018 17:00:00 11,9 7,0 27 15 39 21 NNW 31 0,0
18.10.2018 16:00:00 12,5 7,2 30 16 36 20 NNW 28 0,0
18.10.2018 15:00:00 12,8 6,6 28 15 37 20 NNW 23 0,0
18.10.2018 14:00:00 13,1 7,3 29 15 37 20 NNW 27 0,0
18.10.2018 13:00:00 12,7 8,0 28 15 40 22 NNW 26 0,0
18.10.2018 12:00:00 13,1 8,8 30 16 40 22 NNW 20 0,0
18.10.2018 11:00:00 13,0 9,3 29 16 37 20 NNW 20 0,0
18.10.2018 10:00:00 13,0 10,2 25 13 34 19 NNW 18 0,0
18.10.2018 09:00:00 12,4 10,6 22 12 34 19 NNW 17 0,0
18.10.2018 08:00:00 12,7 11,6 21 11 29 15 NNW 7 0,0
18.10.2018 07:00:00 12,9 11,8 21 11 29 15 NNW 8 0,0
18.10.2018 06:00:00 12,9 12,3 16 9 21 11 NNW 5 0,0
18.10.2018 05:00:00 13,0 12,5 11 6 16 9 NNW 2,2 0,0
18.10.2018 04:00:00 12,9 12,4 11 6 16 9 NNW 0,4 0,0
18.10.2018 03:00:00 13,0 12,4 4 2 14 8 NNE 1,2 0,0
18.10.2018 02:00:00 13,3 12,5 8 5 19 11 SW 1,6 0,0
18.10.2018 01:00:00 12,2 11,3 11 6 21 11 SSE 1,9 0,0
18.10.2018 00:00:00 13,1 11,8 16 9 21 11 S 2,9 0,0
17.10.2018 23:00:00 12,9 11,6 16 8 21 11 SSE 2,9 0,0
17.10.2018 22:00:00 13,4 11,8 16 9 22 12 SSE 3,8 0,0
17.10.2018 21:00:00 13,9 11,9 16 9 24 13 SSE 4,8 0,0
17.10.2018 20:00:00 14,6 12,6 16 9 24 13 SSE 6 0,0
17.10.2018 19:00:00 15,2 13,2 17 9 24 13 SSE 7 0,0
17.10.2018 18:00:00 14,8 13,2 14 8 24 13 SSE 3,5 0,0
17.10.2018 17:00:00 15,6 13,4 16 8 25 14 SSE 3,8 0,0
17.10.2018 16:00:00 16,2 13,7 18 10 28 15 SSE 4,0 0,0
17.10.2018 15:00:00 16,4 13,9 18 10 28 15 SSE 4,1 0,0
17.10.2018 14:00:00 15,4 14,8 20 11 28 15 SSE 2,9 0,0
17.10.2018 13:00:00 13,2 12,9 18 10 28 15 SSE 1,1 0,0
17.10.2018 12:00:00 12,5 12,2 19 10 29 16 SSE 0,6 0,0
17.10.2018 11:00:00 11,9 11,6 21 11 31 17 SSE 0,4 0,0
17.10.2018 10:00:00 11,5 11,2 21 11 31 17 SSE 0,4 0,0
17.10.2018 09:00:00 11,6 11,4 21 11 29 16 SSE 0,3 0,0
17.10.2018 08:00:00 11,5 11,3 22 12 30 16 SSE 0,3 0,0
17.10.2018 07:00:00 11,7 11,7 22 12 30 16 SSE 0,3 0,0
17.10.2018 06:00:00 12,0 11,5 20 11 26 14 SSE 0,3 0,0
17.10.2018 05:00:00 12,1 11,5 11 6 19 10 SSE 0,4 0,0
17.10.2018 04:00:00 12,1 11,3 10 6 14 8 SSE 1,6 0,0
17.10.2018 03:00:00 12,6 11,7 9 5 17 9 SE 2,1 0,0
17.10.2018 02:00:00 13,4 12,6 9 5 17 9 SW 2,4 0,0
17.10.2018 01:00:00 12,7 11,9 10 5 13 7 SSE 2,2 0,0
17.10.2018 00:00:00 13,4 12,6 10 5 12 7 SSW 2,2 0,0
16.10.2018 23:00:00 13,0 12,1 10 5 11 6 S 2,2 0,0
16.10.2018 22:00:00 13,4 12,5 9 5 12 6 SSW 2,8 0,0
16.10.2018 21:00:00 13,0 12,1 7 4 14 7 S 3,1 0,0
16.10.2018 20:00:00 13,1 12,0 9 5 14 7 SW 4,1 0,0
16.10.2018 19:00:00 13,2 11,6 6 4 13 7 SSW 6 0,0
16.10.2018 18:00:00 14,0 11,7 10 5 14 7 S 8 0,0
16.10.2018 17:00:00 15,4 12,2 11 6 20 11 S 9 0,0
16.10.2018 16:00:00 16,2 12,4 11 6 22 12 S 11 0,0
16.10.2018 15:00:00 16,9 12,2 16 8 28 15 SSE 16 0,0
16.10.2018 14:00:00 16,9 11,6 16 9 28 15 SSE 17 0,0
16.10.2018 13:00:00 16,0 11,4 15 8 22 12 SSE 14 0,0
16.10.2018 12:00:00 15,4 11,2 12 7 18 10 SSE 13 0,0
16.10.2018 11:00:00 13,5 10,5 9 5 12 7 SSE 13 0,0
16.10.2018 10:00:00 13,2 10,4 5 3 11 6 ESE 15 0,0
16.10.2018 09:00:00 12,1 10,0 9 5 20 11 SE 13 0,0
16.10.2018 08:00:00 11,4 9,8 10 6 24 13 S 11 0,0
16.10.2018 07:00:00 11,1 9,4 15 8 24 13 SSE 12 0,0
16.10.2018 06:00:00 11,8 9,7 16 8 20 11 SSE 13 0,0
16.10.2018 05:00:00 11,2 9,3 13 7 19 10 SSE 12 0,0
16.10.2018 04:00:00 11,1 9,4 12 7 16 8 SSE 11 0,0
16.10.2018 03:00:00 11,3 9,2 10 5 19 10 SSE 13 0,0
16.10.2018 02:00:00 11,8 9,4 13 7 21 12 SSE 16 0,0
16.10.2018 01:00:00 12,3 9,3 15 8 23 12 SSE 17 0,0
16.10.2018 00:00:00 12,5 9,3 16 9 28 15 SSE 22 0,0
15.10.2018 23:00:00 13,0 9,3 20 11 32 17 SSE 20 0,0
15.10.2018 22:00:00 13,1 9,5 19 11 33 18 SSE 23 0,0
15.10.2018 21:00:00 13,8 10,2 24 13 37 20 SSE 21 0,0
15.10.2018 20:00:00 - - - - - - - - -
15.10.2018 19:00:00 14,1 11,3 22 12 34 19 S 19 0,0
15.10.2018 18:00:00 14,7 11,1 25 13 34 19 S 22 0,0
15.10.2018 17:00:00 15,7 11,3 24 13 30 16 S 21 0,0
15.10.2018 16:00:00 17,2 11,2 21 12 27 15 SSE 26 0,0
15.10.2018 15:00:00 17,3 10,9 18 10 28 15 S 23 0,0
15.10.2018 14:00:00 17,9 10,3 16 9 33 18 SSE 33 0,0
15.10.2018 13:00:00 16,4 10,9 20 11 37 20 S 23 0,0
15.10.2018 12:00:00 15,8 10,1 26 14 38 20 SSE 22 0,0
15.10.2018 11:00:00 14,9 9,7 24 13 38 21 SSE 20 0,0
15.10.2018 10:00:00 14,3 9,3 26 14 40 22 SSE 23 0,0
15.10.2018 09:00:00 13,9 8,9 24 13 40 22 SSE 22 0,0
15.10.2018 08:00:00 13,3 8,8 26 14 39 21 SSE 20 0,0
15.10.2018 07:00:00 13,8 8,8 25 14 39 21 SSE 22 0,0
15.10.2018 06:00:00 13,7 8,7 22 12 39 21 SSE 26 0,0
15.10.2018 05:00:00 14,0 8,8 25 14 39 21 SSE 29 0,0
15.10.2018 04:00:00 14,4 8,8 25 13 38 20 SSE 28 0,0
15.10.2018 03:00:00 14,2 8,8 22 12 38 20 SSE 25 0,0
15.10.2018 02:00:00 14,6 8,8 25 14 39 21 SE 28 0,0
15.10.2018 01:00:00 14,6 9,2 28 15 39 21 SSE 24 0,0
15.10.2018 00:00:00 15,1 9,0 22 12 39 21 SSE 26 0,0
14.10.2018 23:00:00 15,3 9,0 23 12 41 22 SE 23 0,0
14.10.2018 22:00:00 15,3 9,2 25 14 41 22 SE 25 0,0
14.10.2018 21:00:00 14,7 9,7 24 13 36 19 SE 21 0,0
14.10.2018 20:00:00 14,3 9,9 22 12 42 23 SSE 19 0,0
14.10.2018 19:00:00 14,8 10,0 25 13 42 23 SSE 20 0,0
14.10.2018 18:00:00 15,1 10,3 26 14 45 24 SSE 18 0,0
14.10.2018 17:00:00 15,8 10,3 31 17 45 25 SSE 16 0,0
14.10.2018 16:00:00 17,0 10,6 29 16 45 25 SSE 18 0,0
14.10.2018 15:00:00 17,4 11,0 28 15 41 22 SSE 20 0,0
14.10.2018 14:00:00 17,5 11,1 29 15 44 24 S 18 0,0
14.10.2018 13:00:00 18,1 10,9 26 14 47 26 SSE 16 0,0
14.10.2018 12:00:00 16,8 10,9 29 16 49 26 SSE 17 0,0
14.10.2018 11:00:00 15,7 10,7 32 17 56 30 SE 16 0,0
14.10.2018 10:00:00 14,8 9,8 35 19 56 30 SE 16 0,0
14.10.2018 09:00:00 14,2 9,6 30 16 44 24 SE 15 0,0
14.10.2018 08:00:00 14,0 9,6 26 14 43 23 SE 15 0,0
14.10.2018 07:00:00 14,6 9,8 26 14 41 22 SE 16 0,0
14.10.2018 06:00:00 14,7 9,9 27 15 39 21 SE 15 0,0
14.10.2018 05:00:00 14,4 9,8 24 13 36 20 SE 15 0,0
14.10.2018 04:00:00 14,4 10,0 19 10 36 19 SE 15 0,0
14.10.2018 03:00:00 14,8 10,6 23 12 39 21 SE 13 0,0
14.10.2018 02:00:00 15,0 10,8 23 13 41 22 SSE 14 0,0
14.10.2018 01:00:00 15,1 11,1 25 13 41 22 SSE 13 0,0
14.10.2018 00:00:00 15,1 11,3 23 12 39 21 SSE 12 0,0
13.10.2018 23:00:00 15,5 11,5 24 13 41 22 SSE 13 0,0
13.10.2018 22:00:00 15,9 11,7 24 13 41 22 SSE 18 0,0
13.10.2018 21:00:00 16,5 12,1 24 13 37 20 SSE 21 0,0
13.10.2018 20:00:00 17,3 12,4 25 13 35 19 SSE 21 0,0
13.10.2018 19:00:00 17,4 13,1 24 13 34 18 SSE 27 0,0
13.10.2018 18:00:00 16,7 12,6 20 11 36 19 SSE 28 0,0
13.10.2018 17:00:00 18,7 12,9 21 11 36 19 SSE 31 0,0
13.10.2018 16:00:00 19,0 13,0 23 12 36 19 SSE 26 0,0
13.10.2018 15:00:00 19,0 13,4 23 12 36 19 SSE 23 0,0
13.10.2018 14:00:00 17,9 13,2 24 13 34 18 SSE 20 0,0
13.10.2018 13:00:00 17,9 13,4 21 12 34 18 SSE 17 0,0
13.10.2018 12:00:00 17,0 12,5 23 12 38 21 SSE 14 0,0
13.10.2018 11:00:00 16,2 12,0 24 13 38 21 SSE 15 0,0

tt = Température de l'air
td = dewpoint
ff = Vitesse du vent
fx = gusts
dd = Direction du vent
vv = visibility
rr = Quantités de précipitations

stations d'obs. à proximité